Time;durP1;ratioP1;P1;durP2;ratioP2;P2;SDS_P1;SDS_P2;PMS_P1;PMS_P2;Temp;Humidity;BMP_temperature;BMP_pressure;BME280_temperature;BME280_humidity;BME280_pressure;Samples;Min_cycle;Max_cycle;Signal;HPM_P1;HPM_P2
2022/10/29 00:02:13;;;;;;;2.83;1.23;;;;;;;12.39;48.40;96272.88;5105737;28;20527;-64
2022/10/29 00:04:40;;;;;;;5.33;1.10;;;;;;;11.88;50.47;96275.47;5111686;28;20474;-62
2022/10/29 00:07:07;;;;;;;1.20;1.10;;;;;;;12.35;48.88;96248.13;5098042;28;20540;-64
2022/10/29 00:09:34;;;;;;;0.93;0.93;;;;;;;12.20;49.88;96263.56;5105299;28;20450;-62
2022/10/29 00:12:01;;;;;;;0.20;0.20;;;;;;;12.61;48.58;96244.91;5105417;28;20783;-63
2022/10/29 00:14:28;;;;;;;2.80;2.27;;;;;;;12.87;47.59;96257.50;5111450;28;20888;-60
2022/10/29 00:16:55;;;;;;;1.03;0.40;;;;;;;13.02;46.85;96249.91;5103736;28;20452;-62
2022/10/29 00:19:23;;;;;;;0.47;0.47;;;;;;;12.65;47.58;96255.75;5090787;28;20506;-65
2022/10/29 00:21:50;;;;;;;1.27;0.87;;;;;;;12.79;47.50;96263.13;5099763;28;20898;-61
2022/10/29 00:24:17;;;;;;;2.43;1.90;;;;;;;12.88;47.05;96256.47;5110708;28;20470;-60
2022/10/29 00:26:44;;;;;;;1.40;0.53;;;;;;;13.06;46.42;96252.88;5097762;27;21002;-62
2022/10/29 00:29:10;;;;;;;0.17;0.17;;;;;;;13.15;46.53;96246.97;5097308;28;20811;-65
2022/10/29 00:31:37;;;;;;;0.40;0.40;;;;;;;13.36;45.80;96252.56;5090521;28;20977;-61
2022/10/29 00:34:04;;;;;;;0.67;0.67;;;;;;;13.36;45.55;96242.03;5096029;28;20449;-61
2022/10/29 00:36:31;;;;;;;0.30;0.30;;;;;;;13.44;45.48;96239.81;5090645;28;20429;-63
2022/10/29 00:38:58;;;;;;;0.67;0.67;;;;;;;13.63;45.40;96241.13;5090913;28;20435;-62
2022/10/29 00:41:28;;;;;;;0.90;0.90;;;;;;;13.63;45.48;96242.97;5090341;28;20597;-64
2022/10/29 00:44:13;;;;;;;0.20;0.20;;;;;;;13.44;45.11;96241.63;5105710;28;20531;-61
2022/10/29 00:46:45;;;;;;;1.20;1.20;;;;;;;13.40;45.91;96241.31;5095159;28;20505;-60
2022/10/29 00:49:14;;;;;;;1.83;1.57;;;;;;;13.38;45.87;96239.94;5101157;28;20454;-63
2022/10/29 00:51:42;;;;;;;3.13;1.70;;;;;;;13.39;45.50;96237.09;5090518;28;20528;-63
2022/10/29 00:54:11;;;;;;;1.10;0.73;;;;;;;13.34;45.27;96236.22;5095003;28;20444;-62
2022/10/29 00:56:45;;;;;;;0.30;0.30;;;;;;;13.16;45.66;96235.41;5110827;28;20444;-60
2022/10/29 00:59:15;;;;;;;0.07;0.07;;;;;;;13.10;46.14;96233.72;5103366;28;20464;-61
2022/10/29 01:01:43;;;;;;;0.20;0.20;;;;;;;13.00;45.77;96230.91;5095650;28;20472;-62
2022/10/29 01:04:11;;;;;;;0.00;0.00;;;;;;;13.26;46.28;96239.25;5104376;28;20508;-63
2022/10/29 01:06:41;;;;;;;0.10;0.10;;;;;;;13.17;46.24;96228.31;5098402;28;20528;-62
2022/10/29 01:09:07;;;;;;;0.73;0.73;;;;;;;13.12;46.00;96221.13;5097209;28;20488;-64
2022/10/29 01:11:43;;;;;;;2.17;1.97;;;;;;;13.25;45.89;96224.50;5110299;28;20444;-61
2022/10/29 01:14:25;;;;;;;0.73;0.73;;;;;;;12.50;48.12;96214.19;5094273;28;20559;-64
2022/10/29 01:17:03;;;;;;;1.50;1.40;;;;;;;12.86;47.27;96213.03;5099839;28;20444;-64
2022/10/29 01:19:52;;;;;;;2.63;2.03;;;;;;;12.12;48.79;96211.38;5094245;27;20601;-60
2022/10/29 01:22:30;;;;;;;0.40;0.40;;;;;;;11.38;50.47;96221.81;5102098;28;20440;-61
2022/10/29 01:25:19;;;;;;;0.93;0.77;;;;;;;12.08;49.36;96218.09;5103527;28;20512;-63
2022/10/29 01:27:54;;;;;;;1.30;1.20;;;;;;;12.43;48.48;96215.38;5110694;28;20463;-61
2022/10/29 01:30:49;;;;;;;2.70;1.33;;;;;;;12.24;48.88;96214.78;5110325;28;20512;-62
2022/10/29 01:33:27;;;;;;;1.90;1.23;;;;;;;12.03;49.24;96210.94;5110403;28;20509;-62
2022/10/29 01:36:13;;;;;;;0.60;0.60;;;;;;;12.26;48.37;96214.53;5110303;28;21006;-64
2022/10/29 01:39:04;;;;;;;24.70;1.80;;;;;;;12.47;47.99;96216.50;5100572;28;20514;-63
2022/10/29 01:41:54;;;;;;;3.67;2.07;;;;;;;12.73;47.22;96222.00;5100461;28;20550;-62
2022/10/29 01:44:26;;;;;;;0.60;0.60;;;;;;;12.39;47.48;96224.78;5089572;28;20555;-61
2022/10/29 01:46:58;;;;;;;0.37;0.37;;;;;;;12.49;47.05;96204.72;5088950;28;21019;-64
2022/10/29 01:49:34;;;;;;;0.40;0.40;;;;;;;12.59;47.29;96206.75;5103622;28;20783;-62
2022/10/29 01:52:05;;;;;;;0.70;0.70;;;;;;;12.51;47.85;96207.94;5094643;28;20479;-61
2022/10/29 01:54:31;;;;;;;1.17;0.90;;;;;;;12.63;47.38;96200.78;5099953;28;20447;-63
2022/10/29 01:56:59;;;;;;;3.90;1.93;;;;;;;12.48;47.72;96197.88;5088959;28;20560;-60
2022/10/29 01:59:31;;;;;;;0.40;0.33;;;;;;;12.71;47.44;96195.16;5103412;28;20505;-62
2022/10/29 02:02:53;;;;;;;0.87;0.87;;;;;;;12.69;47.35;96201.66;5093716;28;20433;-63
2022/10/29 02:05:59;;;;;;;0.40;0.40;;;;;;;12.84;46.76;96196.69;5109557;28;20873;-63
2022/10/29 02:08:38;;;;;;;0.20;0.20;;;;;;;12.76;46.73;96189.97;5099191;28;20947;-64
2022/10/29 02:11:14;;;;;;;0.67;0.43;;;;;;;12.69;47.27;96194.59;5091557;28;20470;-61
2022/10/29 02:13:49;;;;;;;0.43;0.43;;;;;;;12.75;47.00;96193.66;5100581;28;21026;-63
2022/10/29 02:16:16;;;;;;;0.50;0.50;;;;;;;12.23;47.86;96197.41;5100518;28;20508;-64
2022/10/29 02:18:46;;;;;;;0.13;0.13;;;;;;;12.50;47.47;96192.41;5102537;28;20475;-64
2022/10/29 02:21:17;;;;;;;0.30;0.30;;;;;;;12.34;47.96;96191.31;5105965;28;20540;-61
2022/10/29 02:23:45;;;;;;;0.00;0.00;;;;;;;12.46;47.65;96188.63;5089024;28;20490;-61
2022/10/29 02:26:12;;;;;;;2.43;0.50;;;;;;;12.38;47.55;96194.25;5102253;28;20985;-60
2022/10/29 02:28:39;;;;;;;0.03;0.03;;;;;;;12.25;47.99;96197.97;5092430;28;20448;-63
2022/10/29 02:31:05;;;;;;;0.50;0.50;;;;;;;12.28;48.01;96201.97;5107105;28;20535;-61
2022/10/29 02:33:32;;;;;;;0.10;0.10;;;;;;;12.08;48.36;96202.34;5096909;28;20509;-63
2022/10/29 02:35:59;;;;;;;0.27;0.27;;;;;;;12.43;47.57;96192.53;5100616;28;20520;-63
2022/10/29 02:38:26;;;;;;;0.40;0.40;;;;;;;12.44;47.16;96196.75;5107404;28;20510;-62
2022/10/29 02:40:52;;;;;;;5.43;1.50;;;;;;;12.38;46.89;96187.19;5101838;28;20424;-62
2022/10/29 02:43:19;;;;;;;0.80;0.80;;;;;;;12.32;47.42;96187.31;5091664;28;20519;-60
2022/10/29 02:45:46;;;;;;;0.50;0.50;;;;;;;12.29;47.40;96183.31;5106639;28;20542;-61
2022/10/29 02:48:13;;;;;;;0.43;0.43;;;;;;;12.17;47.23;96179.97;5100465;28;20504;-63
2022/10/29 02:50:40;;;;;;;3.07;1.30;;;;;;;12.13;47.26;96189.31;5095289;28;20476;-64
2022/10/29 02:53:06;;;;;;;2.30;2.13;;;;;;;12.11;47.56;96180.88;5097671;28;20459;-60
2022/10/29 02:55:33;;;;;;;0.43;0.43;;;;;;;12.08;47.75;96163.75;5108005;28;20428;-61
2022/10/29 02:58:00;;;;;;;1.03;0.90;;;;;;;12.23;47.08;96185.06;5112803;28;20433;-63
2022/10/29 03:00:27;;;;;;;10.30;1.43;;;;;;;12.23;47.34;96182.44;5112287;28;20464;-61
2022/10/29 03:02:54;;;;;;;0.20;0.20;;;;;;;12.12;47.24;96192.97;5098865;28;21021;-63
2022/10/29 03:05:21;;;;;;;1.73;1.30;;;;;;;11.86;47.90;96189.03;5111626;28;20486;-61
2022/10/29 03:07:48;;;;;;;1.50;1.40;;;;;;;12.04;47.14;96180.22;5098010;28;20433;-62
2022/10/29 03:10:15;;;;;;;3.30;2.73;;;;;;;11.90;47.93;96186.75;5099010;28;20448;-62
2022/10/29 03:12:41;;;;;;;1.73;1.63;;;;;;;11.73;48.38;96189.28;5112483;28;20532;-64
2022/10/29 03:15:09;;;;;;;2.40;2.20;;;;;;;11.83;48.32;96191.31;5103484;28;20816;-64
2022/10/29 03:17:35;;;;;;;0.40;0.40;;;;;;;11.88;48.16;96180.91;5103495;28;20509;-64
2022/10/29 03:20:03;;;;;;;0.60;0.60;;;;;;;11.83;47.95;96189.50;5104317;28;20425;-63
2022/10/29 03:22:29;;;;;;;1.07;1.07;;;;;;;11.56;48.15;96180.50;5106655;28;20497;-64
2022/10/29 03:24:56;;;;;;;0.30;0.30;;;;;;;11.36;48.99;96182.69;5112553;28;20483;-62
2022/10/29 03:27:23;;;;;;;2.67;2.10;;;;;;;10.86;50.46;96173.63;5100076;28;20490;-64
2022/10/29 03:29:50;;;;;;;1.20;0.73;;;;;;;11.13;49.81;96183.47;5106070;28;20531;-63
2022/10/29 03:32:16;;;;;;;1.47;1.30;;;;;;;11.58;48.62;96183.69;5101256;28;20448;-64
2022/10/29 03:34:43;;;;;;;1.83;1.70;;;;;;;11.71;48.30;96185.31;5094798;28;20855;-61
2022/10/29 03:37:10;;;;;;;1.00;0.93;;;;;;;11.91;47.39;96170.78;5101479;28;21036;-63
2022/10/29 03:39:37;;;;;;;0.67;0.67;;;;;;;11.87;47.46;96163.56;5096055;28;20455;-61
2022/10/29 03:42:03;;;;;;;0.30;0.30;;;;;;;11.41;49.41;96176.72;5091549;28;20960;-62
2022/10/29 03:44:30;;;;;;;5.47;2.03;;;;;;;11.59;48.22;96171.34;5093098;28;20887;-61
2022/10/29 03:46:57;;;;;;;0.30;0.30;;;;;;;11.72;47.63;96168.50;5099796;28;20863;-63
2022/10/29 03:49:24;;;;;;;1.43;1.33;;;;;;;11.83;47.50;96165.06;5106003;28;20464;-63
2022/10/29 03:51:51;;;;;;;1.27;1.17;;;;;;;12.02;47.19;96171.78;5091637;28;20456;-62
2022/10/29 03:54:18;;;;;;;0.77;0.60;;;;;;;11.97;47.14;96166.41;5106075;28;20436;-61
2022/10/29 03:56:45;;;;;;;0.50;0.50;;;;;;;11.68;47.91;96177.88;5093795;28;20457;-62
2022/10/29 03:59:11;;;;;;;1.83;1.17;;;;;;;11.80;47.30;96168.16;5096523;28;20985;-64
2022/10/29 04:01:38;;;;;;;1.60;1.43;;;;;;;11.94;47.02;96180.00;5098961;28;20896;-65
2022/10/29 04:04:05;;;;;;;0.17;0.17;;;;;;;11.84;47.54;96174.56;5097082;28;20453;-64
2022/10/29 04:06:32;;;;;;;1.93;1.40;;;;;;;11.70;47.78;96174.00;5100097;28;20575;-63
2022/10/29 04:08:59;;;;;;;40.90;2.90;;;;;;;11.70;47.81;96179.25;5096328;28;20452;-61
2022/10/29 04:11:25;;;;;;;1.77;1.13;;;;;;;11.60;48.07;96180.84;5098101;28;20443;-65
2022/10/29 04:13:52;;;;;;;0.77;0.73;;;;;;;11.38;48.16;96174.56;5104246;28;20452;-63
2022/10/29 04:16:19;;;;;;;2.13;1.50;;;;;;;11.39;48.33;96178.78;5098911;28;20459;-62
2022/10/29 04:18:47;;;;;;;0.97;0.97;;;;;;;11.57;48.03;96176.06;5096562;28;20465;-62
2022/10/29 04:21:15;;;;;;;0.57;0.57;;;;;;;11.49;48.35;96176.38;5097058;28;20464;-62
2022/10/29 04:24:02;;;;;;;0.53;0.53;;;;;;;11.08;48.79;96182.53;5095653;28;20440;-60
2022/10/29 04:26:52;;;;;;;0.53;0.53;;;;;;;10.92;48.22;96191.88;5099730;28;20480;-64
2022/10/29 04:29:39;;;;;;;0.77;0.77;;;;;;;10.98;49.08;96190.97;5096494;28;20437;-63
2022/10/29 04:32:06;;;;;;;0.60;0.60;;;;;;;10.78;49.46;96193.13;5096217;28;20893;-63
2022/10/29 04:34:32;;;;;;;1.40;1.37;;;;;;;10.90;49.70;96196.56;5100923;27;20502;-65
2022/10/29 04:36:59;;;;;;;0.67;0.50;;;;;;;11.16;49.38;96197.97;5092234;27;20516;-62
2022/10/29 04:39:26;;;;;;;0.53;0.53;;;;;;;11.08;49.17;96196.47;5109265;28;20778;-62
2022/10/29 04:41:53;;;;;;;1.90;1.37;;;;;;;11.16;49.09;96188.28;5098731;28;20916;-62
2022/10/29 04:44:20;;;;;;;1.13;1.03;;;;;;;11.30;48.76;96190.66;5110292;27;20547;-64
2022/10/29 04:46:47;;;;;;;0.60;0.60;;;;;;;11.31;48.61;96197.50;5103134;28;20491;-63
2022/10/29 04:49:14;;;;;;;3.00;1.13;;;;;;;11.25;48.60;96207.09;5099128;27;20500;-63
2022/10/29 04:51:41;;;;;;;0.47;0.30;;;;;;;11.38;48.00;96192.94;5122135;27;20465;-62
2022/10/29 04:54:08;;;;;;;0.10;0.10;;;;;;;11.07;48.46;96200.13;5111435;27;20437;-63
2022/10/29 04:56:34;;;;;;;2.10;1.07;;;;;;;11.08;48.91;96193.84;5100484;28;21396;-63
2022/10/29 04:59:01;;;;;;;0.77;0.77;;;;;;;11.31;48.40;96189.63;5107744;28;20439;-62
2022/10/29 05:01:29;;;;;;;0.10;0.10;;;;;;;11.07;47.98;96192.25;5089898;28;20441;-61
2022/10/29 05:03:56;;;;;;;0.70;0.70;;;;;;;10.61;49.57;96193.97;5105299;28;20436;-61
2022/10/29 05:06:26;;;;;;;0.10;0.10;;;;;;;10.79;48.95;96193.91;5102098;27;20575;-61
2022/10/29 05:08:52;;;;;;;3.00;2.00;;;;;;;10.97;49.26;96189.38;5090649;27;20433;-61
2022/10/29 05:11:19;;;;;;;3.20;1.23;;;;;;;11.09;48.82;96200.66;5096117;28;20440;-60
2022/10/29 05:13:46;;;;;;;0.87;0.87;;;;;;;11.12;48.51;96202.84;5097731;28;20484;-61
2022/10/29 05:16:13;;;;;;;0.83;0.83;;;;;;;11.12;48.59;96200.25;5107991;28;20443;-61
2022/10/29 05:18:40;;;;;;;1.03;1.03;;;;;;;11.15;48.10;96201.59;5109697;27;20474;-61
2022/10/29 05:21:06;;;;;;;0.87;0.87;;;;;;;11.08;48.32;96203.53;5100821;28;20449;-62
2022/10/29 05:23:33;;;;;;;0.37;0.20;;;;;;;11.11;48.29;96201.25;5092137;28;20448;-61
2022/10/29 05:26:00;;;;;;;0.87;0.83;;;;;;;11.27;47.72;96204.22;5093444;28;20568;-62
2022/10/29 05:28:27;;;;;;;0.20;0.20;;;;;;;11.23;48.36;96203.88;5099426;28;20440;-62
2022/10/29 05:30:54;;;;;;;1.27;1.17;;;;;;;11.11;48.24;96189.97;5091551;27;20466;-61
2022/10/29 05:33:23;;;;;;;0.47;0.47;;;;;;;11.35;48.20;96198.66;5096338;27;20448;-61
2022/10/29 05:35:50;;;;;;;0.77;0.77;;;;;;;11.04;48.43;96213.66;5101587;28;20539;-62
2022/10/29 05:38:18;;;;;;;0.57;0.57;;;;;;;11.24;48.37;96200.22;5094203;28;20449;-60
2022/10/29 05:40:45;;;;;;;1.83;1.07;;;;;;;11.31;47.98;96210.63;5102867;28;20821;-62
2022/10/29 05:43:13;;;;;;;5.10;2.20;;;;;;;11.08;49.67;96216.63;5097183;27;20536;-62
2022/10/29 05:45:41;;;;;;;2.00;1.40;;;;;;;11.33;48.55;96219.06;5094636;28;20522;-62
2022/10/29 05:48:09;;;;;;;1.67;1.57;;;;;;;11.45;48.86;96204.94;5108051;28;20441;-62
2022/10/29 05:50:41;;;;;;;9.17;2.73;;;;;;;11.57;48.36;96215.44;5108448;28;21058;-61
2022/10/29 05:53:13;;;;;;;0.80;0.80;;;;;;;11.57;48.53;96212.81;5109224;28;20452;-62
2022/10/29 05:55:40;;;;;;;2.00;1.90;;;;;;;11.60;48.67;96220.22;5095108;28;20444;-61
2022/10/29 05:58:11;;;;;;;3.40;2.80;;;;;;;11.78;47.91;96217.50;5097781;28;20472;-62
2022/10/29 06:00:41;;;;;;;4.20;3.70;;;;;;;11.82;48.40;96223.88;5089844;28;20535;-62
2022/10/29 06:03:12;;;;;;;1.90;1.60;;;;;;;11.70;48.66;96221.25;5100093;28;21013;-61
2022/10/29 06:05:40;;;;;;;3.20;2.90;;;;;;;11.70;48.40;96209.94;5103259;28;20507;-62
2022/10/29 06:08:06;;;;;;;1.33;1.23;;;;;;;11.85;48.50;96226.03;5096898;28;21024;-62
2022/10/29 06:10:33;;;;;;;0.97;0.97;;;;;;;11.82;48.65;96229.13;5094834;28;20493;-61
2022/10/29 06:13:00;;;;;;;0.40;0.40;;;;;;;11.58;49.61;96228.31;5094608;28;20519;-62
2022/10/29 06:15:27;;;;;;;0.80;0.80;;;;;;;11.96;48.71;96226.03;5110130;28;20444;-63
2022/10/29 06:17:54;;;;;;;1.33;1.23;;;;;;;11.53;49.69;96240.53;5094908;28;20573;-61
2022/10/29 06:20:21;;;;;;;1.57;1.47;;;;;;;11.72;49.60;96234.16;5099129;28;20443;-61
2022/10/29 06:22:56;;;;;;;1.97;1.33;;;;;;;12.08;48.50;96228.63;5100209;28;20436;-63
2022/10/29 06:25:26;;;;;;;2.10;1.23;;;;;;;12.26;48.62;96231.13;5099098;28;20954;-61
2022/10/29 06:28:14;;;;;;;0.70;0.70;;;;;;;11.09;50.91;96232.16;5094843;28;20492;-63
2022/10/29 06:30:46;;;;;;;1.93;1.83;;;;;;;11.17;51.07;96231.84;5109276;28;20975;-63
2022/10/29 06:33:13;;;;;;;0.30;0.30;;;;;;;11.10;51.09;96233.75;5090589;28;20494;-60
2022/10/29 06:35:40;;;;;;;1.83;1.67;;;;;;;11.00;51.63;96236.13;5089780;28;20532;-62
2022/10/29 06:38:07;;;;;;;0.30;0.30;;;;;;;11.87;49.98;96210.84;5108898;28;20988;-59
2022/10/29 06:40:38;;;;;;;3.03;1.70;;;;;;;12.36;48.89;96226.03;5108229;28;20439;-61
2022/10/29 06:43:08;;;;;;;1.60;1.20;;;;;;;12.57;48.44;96222.75;5095770;28;20432;-60
2022/10/29 06:45:35;;;;;;;1.17;1.13;;;;;;;12.63;47.78;96227.06;5095214;28;20580;-60
2022/10/29 06:48:03;;;;;;;2.93;2.10;;;;;;;12.27;49.07;96226.63;5088294;28;20473;-61
2022/10/29 06:50:31;;;;;;;3.13;1.77;;;;;;;12.27;48.82;96227.44;5098184;28;21041;-61
2022/10/29 06:53:06;;;;;;;1.53;1.43;;;;;;;12.49;49.07;96225.75;5088497;28;20970;-62
2022/10/29 06:55:33;;;;;;;2.63;2.03;;;;;;;12.12;50.04;96224.50;5104947;28;20448;-66
2022/10/29 06:58:26;;;;;;;7.00;3.73;;;;;;;13.52;47.08;96230.69;5100509;28;20528;-68
2022/10/29 07:00:53;;;;;;;6.33;1.70;;;;;;;12.52;49.51;96224.50;5101711;28;20889;-63
2022/10/29 07:03:21;;;;;;;1.40;1.33;;;;;;;12.96;48.12;96224.50;5098911;28;20480;-62
2022/10/29 07:05:55;;;;;;;4.00;1.93;;;;;;;13.38;48.05;96226.78;5106334;28;20534;-64
2022/10/29 07:08:22;;;;;;;3.80;3.07;;;;;;;13.35;48.03;96225.44;5098229;28;20440;-62
2022/10/29 07:10:52;;;;;;;2.83;2.07;;;;;;;12.81;48.82;96226.88;5095942;28;20531;-62
2022/10/29 07:13:19;;;;;;;1.77;1.67;;;;;;;12.95;48.15;96225.56;5103859;28;20488;-64
2022/10/29 07:15:46;;;;;;;0.97;0.97;;;;;;;13.31;47.58;96228.78;5107369;28;20527;-63
2022/10/29 07:18:13;;;;;;;2.30;2.10;;;;;;;13.57;47.24;96225.50;5112724;27;20444;-61
2022/10/29 07:20:42;;;;;;;0.53;0.53;;;;;;;13.71;46.75;96224.91;5112638;28;20435;-65
2022/10/29 07:23:10;;;;;;;1.63;1.53;;;;;;;13.61;46.93;96229.25;5092179;28;20960;-68
2022/10/29 07:25:38;;;;;;;4.53;3.40;;;;;;;13.28;48.02;96234.53;5104424;28;20875;-67
2022/10/29 07:28:19;;;;;;;1.10;1.07;;;;;;;13.98;46.37;96239.00;5093514;28;20437;-63
2022/10/29 07:30:49;;;;;;;2.57;1.80;;;;;;;13.72;46.91;96239.69;5104539;28;20440;-69
2022/10/29 07:33:17;;;;;;;2.03;1.37;;;;;;;13.81;47.12;96240.06;5112370;28;20450;-64
2022/10/29 07:35:44;;;;;;;1.90;1.80;;;;;;;14.95;44.12;96241.72;5101322;28;20476;-63
2022/10/29 07:38:12;;;;;;;3.00;1.73;;;;;;;14.32;44.57;96231.00;5109433;28;20459;-61
2022/10/29 07:40:45;;;;;;;0.97;0.93;;;;;;;13.78;47.29;96230.81;5102493;28;20441;-62
2022/10/29 07:43:18;;;;;;;2.03;1.27;;;;;;;14.27;45.82;96229.09;5100326;28;20493;-62
2022/10/29 07:45:49;;;;;;;4.63;3.17;;;;;;;14.62;45.94;96226.88;5111335;28;20451;-62
2022/10/29 07:48:17;;;;;;;5.50;2.00;;;;;;;15.47;42.73;96220.81;5103786;28;20476;-62
2022/10/29 07:50:45;;;;;;;0.90;0.70;;;;;;;15.12;43.13;96210.72;5100718;28;20453;-62
2022/10/29 07:53:12;;;;;;;4.37;2.40;;;;;;;14.98;43.99;96202.41;5102135;28;20472;-62
2022/10/29 07:55:38;;;;;;;2.10;1.43;;;;;;;14.73;44.86;96218.00;5097187;28;20790;-63
2022/10/29 07:58:08;;;;;;;2.70;2.27;;;;;;;15.92;43.66;96221.09;5102715;28;20434;-64
2022/10/29 08:00:39;;;;;;;5.63;2.03;;;;;;;15.44;43.54;96218.69;5092624;28;20469;-63
2022/10/29 08:03:06;;;;;;;1.57;1.47;;;;;;;15.61;43.43;96206.09;5102973;28;20438;-63
2022/10/29 08:05:33;;;;;;;0.83;0.83;;;;;;;15.14;44.92;96211.28;5105576;28;20464;-63
2022/10/29 08:08:00;;;;;;;2.10;1.23;;;;;;;16.50;42.71;96212.91;5111368;28;20432;-63
2022/10/29 08:10:29;;;;;;;0.87;0.87;;;;;;;16.52;41.72;96204.69;5098042;28;20484;-64
2022/10/29 08:12:57;;;;;;;1.30;0.93;;;;;;;16.15;42.06;96179.16;5096018;28;20436;-61
2022/10/29 08:15:28;;;;;;;1.00;0.97;;;;;;;16.56;41.27;96198.63;5099106;28;20965;-65
2022/10/29 08:17:55;;;;;;;3.90;1.83;;;;;;;16.63;41.06;96193.88;5105010;28;21007;-66
2022/10/29 08:20:25;;;;;;;1.07;0.97;;;;;;;17.82;39.79;96185.44;5101471;28;20448;-69
2022/10/29 08:22:51;;;;;;;1.23;1.03;;;;;;;17.09;40.11;96194.75;5092932;28;20486;-65
2022/10/29 08:25:19;;;;;;;6.63;2.57;;;;;;;17.07;40.82;96192.38;5100167;28;20448;-62
2022/10/29 08:28:03;;;;;;;0.50;0.50;;;;;;;16.98;40.55;96190.50;5096689;28;20484;-64
2022/10/29 08:30:31;;;;;;;2.80;1.97;;;;;;;17.00;41.57;96191.84;5110583;28;20436;-65
2022/10/29 08:32:58;;;;;;;1.60;1.47;;;;;;;16.98;41.56;96187.84;5092660;28;20472;-66
2022/10/29 08:35:26;;;;;;;4.73;2.30;;;;;;;17.96;39.74;96189.09;5099116;28;20475;-63
2022/10/29 08:37:53;;;;;;;1.33;1.33;;;;;;;17.97;39.73;96185.41;5096541;28;20445;-68
2022/10/29 08:40:58;;;;;;;3.10;2.80;;;;;;;18.08;39.10;96176.34;5103576;28;20441;-69
2022/10/29 08:43:52;;;;;;;1.33;1.20;;;;;;;18.43;37.52;96173.53;5090664;28;20432;-71
2022/10/29 08:46:28;;;;;;;4.03;2.13;;;;;;;18.37;37.24;96169.31;5109952;28;20480;-68
2022/10/29 08:49:03;;;;;;;0.70;0.70;;;;;;;17.30;39.72;96171.72;5104247;28;20428;-65
2022/10/29 08:51:35;;;;;;;3.30;2.10;;;;;;;17.61;39.27;96165.34;5090751;28;20437;-66
2022/10/29 08:54:03;;;;;;;0.83;0.83;;;;;;;18.00;39.25;96159.13;5104574;28;20528;-68
2022/10/29 08:56:56;;;;;;;3.33;2.83;;;;;;;18.44;38.51;96158.41;5103355;28;20505;-65
2022/10/29 08:59:26;;;;;;;1.80;1.47;;;;;;;18.99;37.82;96148.25;5110759;28;20467;-62
2022/10/29 09:01:52;;;;;;;1.43;1.33;;;;;;;19.05;37.22;96149.78;5110524;28;20970;-61
2022/10/29 09:04:49;;;;;;;2.33;2.17;;;;;;;19.29;37.16;96149.84;5105751;28;20449;-63
2022/10/29 09:07:38;;;;;;;0.67;0.67;;;;;;;18.35;38.69;96158.19;5080842;28;20969;-64
2022/10/29 09:10:11;;;;;;;0.77;0.77;;;;;;;18.80;37.83;96142.00;5100058;28;20451;-64
2022/10/29 09:12:47;;;;;;;2.17;2.03;;;;;;;19.86;36.61;96147.19;5093857;28;20444;-66
2022/10/29 09:15:38;;;;;;;9.37;1.87;;;;;;;19.96;36.02;96138.31;5107977;28;20442;-66
2022/10/29 09:18:28;;;;;;;1.70;1.10;;;;;;;20.77;34.85;96133.50;5087195;28;20441;-65
2022/10/29 09:21:11;;;;;;;1.80;1.70;;;;;;;20.82;34.67;96124.66;5087992;28;20455;-65
2022/10/29 09:23:47;;;;;;;0.80;0.80;;;;;;;20.51;35.19;96129.63;5098131;28;20449;-65
2022/10/29 09:26:27;;;;;;;1.30;1.20;;;;;;;20.19;35.61;96126.88;5104800;28;20479;-65
2022/10/29 09:29:18;;;;;;;1.67;0.73;;;;;;;20.08;36.30;96126.16;5099039;28;20441;-66
2022/10/29 09:31:52;;;;;;;1.53;1.37;;;;;;;19.86;36.51;96125.91;5074099;28;20500;-65
2022/10/29 09:34:29;;;;;;;1.43;1.27;;;;;;;20.94;34.94;96115.13;5095870;28;20432;-65
2022/10/29 09:36:57;;;;;;;2.00;1.90;;;;;;;21.23;34.28;96119.47;5096347;28;20500;-64
2022/10/29 09:39:40;;;;;;;1.23;1.13;;;;;;;20.98;34.65;96113.44;5109850;28;20471;-65
2022/10/29 09:42:10;;;;;;;4.33;2.30;;;;;;;20.82;34.66;96098.03;5089574;28;20479;-68
2022/10/29 09:45:01;;;;;;;1.77;1.67;;;;;;;21.11;34.91;96102.06;5095299;28;20440;-67
2022/10/29 09:47:34;;;;;;;1.03;0.80;;;;;;;21.74;34.10;96098.81;5109678;28;20950;-65
2022/10/29 09:50:16;;;;;;;1.33;1.23;;;;;;;21.61;33.68;96094.25;5109677;28;20440;-64
2022/10/29 09:52:45;;;;;;;2.70;1.67;;;;;;;21.71;32.73;96089.53;5096981;28;20285;-69
2022/10/29 09:55:17;;;;;;;0.47;0.47;;;;;;;22.08;32.63;96078.66;5096195;28;21038;-66
2022/10/29 09:57:45;;;;;;;0.87;0.87;;;;;;;22.28;32.04;96080.09;5095712;28;20446;-67
2022/10/29 10:00:18;;;;;;;0.70;0.60;;;;;;;22.59;32.80;96077.59;5109921;28;20625;-64
2022/10/29 10:02:55;;;;;;;1.33;1.23;;;;;;;22.96;31.21;96074.56;5089751;28;20456;-67
2022/10/29 10:05:25;;;;;;;1.17;0.87;;;;;;;21.71;32.35;96072.75;5089533;28;20363;-66
2022/10/29 10:08:06;;;;;;;1.90;1.30;;;;;;;22.34;31.86;96072.78;5108909;28;20228;-65
2022/10/29 10:10:51;;;;;;;1.83;1.27;;;;;;;22.71;31.95;96059.94;5109331;28;20233;-67
2022/10/29 10:13:22;;;;;;;1.97;1.20;;;;;;;22.98;30.57;96053.66;5097641;28;20198;-65
2022/10/29 10:15:59;;;;;;;0.87;0.87;;;;;;;22.95;31.32;96051.59;5107851;28;20536;-65
2022/10/29 10:18:39;;;;;;;1.03;1.03;;;;;;;22.86;31.02;96034.72;5097746;28;20375;-66
2022/10/29 10:21:12;;;;;;;1.50;1.40;;;;;;;22.76;32.02;96035.75;5094670;28;20651;-65
2022/10/29 10:23:44;;;;;;;1.87;1.33;;;;;;;22.65;31.23;96031.75;5109453;28;20594;-65
2022/10/29 10:26:38;;;;;;;0.90;0.90;;;;;;;22.76;31.54;96029.63;5095174;28;20567;-65
2022/10/29 10:29:04;;;;;;;1.00;0.80;;;;;;;22.67;31.10;96016.19;5109679;28;20202;-69
2022/10/29 10:31:31;;;;;;;1.67;1.10;;;;;;;22.60;31.22;96020.38;5095076;28;20278;-67
2022/10/29 10:34:06;;;;;;;1.40;1.30;;;;;;;22.95;30.91;96014.19;5098880;28;20207;-66
2022/10/29 10:36:39;;;;;;;0.83;0.83;;;;;;;23.39;30.90;96006.09;5088891;28;20193;-65
2022/10/29 10:39:27;;;;;;;1.80;1.70;;;;;;;23.06;30.95;96002.13;5088880;28;20199;-65
2022/10/29 10:41:57;;;;;;;0.50;0.50;;;;;;;22.76;31.72;95998.34;5097463;28;20199;-65
2022/10/29 10:44:24;;;;;;;0.93;0.93;;;;;;;23.31;31.45;96003.38;5102968;28;20252;-68
2022/10/29 10:46:55;;;;;;;1.30;1.20;;;;;;;23.07;31.38;95995.69;5101918;28;20234;-68
2022/10/29 10:49:36;;;;;;;1.37;1.27;;;;;;;23.19;31.03;95995.13;5110130;28;20213;-68
2022/10/29 10:52:16;;;;;;;1.33;1.23;;;;;;;23.24;31.44;95979.72;5093949;28;20199;-63
2022/10/29 10:54:58;;;;;;;1.37;1.07;;;;;;;23.61;30.14;95981.13;5113171;28;20654;-63
2022/10/29 10:57:29;;;;;;;0.83;0.77;;;;;;;23.69;30.42;95969.66;5113216;28;20224;-70
2022/10/29 11:00:07;;;;;;;1.33;1.23;;;;;;;22.72;31.98;95959.97;5113273;28;20202;-62
2022/10/29 11:02:38;;;;;;;1.03;1.03;;;;;;;23.35;31.45;95974.91;5107301;28;20286;-69
2022/10/29 11:05:17;;;;;;;1.07;0.67;;;;;;;22.88;31.39;95963.03;5103146;28;20852;-62
2022/10/29 11:08:15;;;;;;;2.23;1.17;;;;;;;23.23;32.13;95964.00;5113065;28;20206;-65
2022/10/29 11:10:51;;;;;;;0.50;0.50;;;;;;;23.56;30.97;95952.63;5094415;28;20252;-64
2022/10/29 11:13:27;;;;;;;0.53;0.53;;;;;;;23.73;30.43;95957.22;5113112;28;20665;-69
2022/10/29 11:16:12;;;;;;;0.20;0.20;;;;;;;23.84;31.41;95945.13;5113027;28;20287;-71
2022/10/29 11:18:48;;;;;;;0.40;0.40;;;;;;;24.11;30.59;95947.53;5100901;28;20203;-68
2022/10/29 11:21:38;;;;;;;0.53;0.53;;;;;;;24.02;30.56;95933.34;5091893;28;20210;-67
2022/10/29 11:24:29;;;;;;;2.00;1.70;;;;;;;24.47;29.60;95929.22;5098515;28;20707;-65
2022/10/29 11:27:05;;;;;;;2.37;1.97;;;;;;;24.59;29.73;95931.25;5112497;28;20345;-63
2022/10/29 11:29:44;;;;;;;1.73;1.60;;;;;;;24.60;28.11;95912.16;5110274;28;20201;-70
2022/10/29 11:32:22;;;;;;;0.83;0.83;;;;;;;24.54;28.97;95918.03;5092197;28;20681;-69
2022/10/29 11:35:10;;;;;;;0.37;0.37;;;;;;;24.58;28.79;95914.38;5095293;28;20696;-69
2022/10/29 11:37:48;;;;;;;0.83;0.83;;;;;;;24.59;28.25;95909.81;5112258;28;20620;-68
2022/10/29 11:40:23;;;;;;;0.43;0.43;;;;;;;25.08;28.70;95906.53;5091124;28;20321;-67
2022/10/29 11:42:49;;;;;;;1.67;1.57;;;;;;;25.51;27.92;95899.06;5091581;28;20191;-66
2022/10/29 11:45:23;;;;;;;1.40;0.50;;;;;;;26.10;26.68;95893.59;5091406;28;20199;-70
2022/10/29 11:48:12;;;;;;;0.50;0.43;;;;;;;26.47;26.43;95888.03;5090650;28;20721;-67
2022/10/29 11:50:57;;;;;;;1.53;1.43;;;;;;;26.75;26.73;95883.66;5090106;28;20284;-67
2022/10/29 11:54:25;;;;;;;0.30;0.30;;;;;;;26.44;26.36;95888.69;5090867;28;20191;-67
2022/10/29 11:57:04;;;;;;;0.90;0.73;;;;;;;27.60;25.57;95881.00;5048668;28;20198;-69
2022/10/29 11:59:48;;;;;;;1.43;1.07;;;;;;;27.71;24.75;95874.03;5050191;28;20204;-66